Lake Windsor, Wisconsin
Current Conditions -  °F | °C
As of 4:53 AM on Monday 20 Oct 2014 (Local Time) from KMSN Reporting Station
Few Clouds Few Clouds  
Wind Chill: 43°   Ceiling: Unl
Heat Index: 43°   Visibility: 10mi
Dew Point: 40°   Wind: 0mph
Humidity: 89%   Direction: NA
Pressure: 29.79"   Gusts: NA
Location:  43.2117°N, 89.3436°W
Report Text: KMSN 200953Z AUTO 00000KT 10SM FEW065 06/04 A2979 RMK AO2 SLP092 T00610044
Loading
Personal Weather Stations






























Interactive Weather Map
Tropical Storm Tracking
New forecast layout! Learn more

10-Day Weather Forecast

Advertisements
Track Severe Weather on mobile